Parma Heights, Ohio
Current Conditions -  °F | °C
As of 2:51 AM on Monday 24 Nov 2014 (Local Time) from KCLE Reporting Station
Light Rain Light Rain  
Wind Chill: 58°   Ceiling: 4700
Heat Index: 58°   Visibility: 10mi
Dew Point: 52°   Wind: 23mph
Humidity: 81%   Direction: 180°S
Pressure: 29.24"   Gusts: 32mph
Location:  41.3776°N, 81.7863°W
Report Text: KCLE 240751Z 18020G28KT 10SM -RA FEW022 OVC047 14/11 A2924 RMK AO2 PK WND 19033/0654 RAB10 SLP900 P0000 T01440111 $
Loading
Personal Weather Stations






























Interactive Weather Map New forecast layout! Learn more

10-Day Weather Forecast

Advertisements
Track Severe Weather on mobile